Time;durP1;ratioP1;P1;durP2;ratioP2;P2;SDS_P1;SDS_P2;PMS_P1;PMS_P2;Temp;Humidity;BMP_temperature;BMP_pressure;BME280_temperature;BME280_humidity;BME280_pressure;Samples;Min_cycle;Max_cycle;Signal;HPM_P1;HPM_P2
2021/10/25 00:00:41;;;;;;;6.85;3.10;;;;;;;3.53;95.33;96401.94;5105727;27;20573;-67
2021/10/25 00:03:09;;;;;;;6.43;3.05;;;;;;;3.53;95.25;96398.53;5105044;28;20042;-67
2021/10/25 00:05:38;;;;;;;6.95;3.13;;;;;;;3.45;95.34;96386.38;5102973;28;20557;-67
2021/10/25 00:08:05;;;;;;;5.43;3.22;;;;;;;3.49;95.40;96390.28;5104190;28;20464;-67
2021/10/25 00:10:36;;;;;;;10.93;3.20;;;;;;;3.48;96.11;96390.44;5104814;28;20040;-67
2021/10/25 00:13:03;;;;;;;5.03;2.65;;;;;;;3.38;96.47;96380.22;5104909;27;20036;-67
2021/10/25 00:15:30;;;;;;;6.28;3.50;;;;;;;3.47;96.67;96392.19;5104289;28;20062;-67
2021/10/25 00:17:59;;;;;;;7.15;3.20;;;;;;;3.43;96.58;96390.88;5105719;27;20043;-67
2021/10/25 00:20:26;;;;;;;5.38;3.20;;;;;;;3.41;96.04;96387.66;5104514;27;20104;-67
2021/10/25 00:22:52;;;;;;;6.93;3.30;;;;;;;3.43;96.37;96396.03;5091191;28;20047;-67
2021/10/25 00:25:19;;;;;;;5.13;2.88;;;;;;;3.45;96.31;96399.28;5103431;27;20051;-67
2021/10/25 00:27:46;;;;;;;5.45;2.50;;;;;;;3.39;96.03;96389.56;5084014;27;20066;-67
2021/10/25 00:30:13;;;;;;;4.85;2.58;;;;;;;3.32;96.42;96383.38;5104108;27;20738;-67
2021/10/25 00:32:40;;;;;;;4.93;2.88;;;;;;;3.39;96.04;96399.88;5104489;28;20040;-67
2021/10/25 00:35:08;;;;;;;3.17;2.30;;;;;;;3.39;96.21;96389.56;5103983;27;20046;-67
2021/10/25 00:37:36;;;;;;;4.38;2.30;;;;;;;3.39;96.06;96399.88;5078624;27;20061;-67
2021/10/25 00:40:05;;;;;;;4.90;2.88;;;;;;;3.34;95.61;96391.78;5103508;28;20039;-67
2021/10/25 00:42:33;;;;;;;4.15;3.10;;;;;;;3.34;95.63;96397.72;5105222;27;20040;-67
2021/10/25 00:45:00;;;;;;;4.38;2.80;;;;;;;3.35;95.51;96408.81;5104180;28;20047;-67
2021/10/25 00:47:27;;;;;;;4.32;2.42;;;;;;;3.25;96.58;96398.59;5103562;28;20055;-67
2021/10/25 00:49:54;;;;;;;4.55;2.95;;;;;;;3.18;97.11;96398.38;5103021;27;20039;-67
2021/10/25 00:52:21;;;;;;;6.07;2.53;;;;;;;3.15;96.91;96393.53;5103955;28;20096;-67
2021/10/25 00:54:48;;;;;;;5.18;2.67;;;;;;;3.16;97.21;96397.72;5105093;27;20501;-67
2021/10/25 00:57:15;;;;;;;6.10;2.92;;;;;;;3.12;97.69;96401.53;5103971;28;20039;-67
2021/10/25 00:59:42;;;;;;;5.45;2.70;;;;;;;3.07;99.17;96396.03;5085824;27;20043;-66
2021/10/25 01:02:08;;;;;;;4.10;2.55;;;;;;;3.01;99.45;96389.69;5103081;28;20047;-67
2021/10/25 01:04:36;;;;;;;3.88;2.75;;;;;;;3.03;99.07;96389.53;5103900;28;20070;-67
2021/10/25 01:07:04;;;;;;;5.50;2.28;;;;;;;2.96;99.04;96378.22;5103041;28;20160;-67
2021/10/25 01:09:32;;;;;;;8.82;3.33;;;;;;;3.00;99.04;96389.81;5103329;28;20035;-68
2021/10/25 01:12:00;;;;;;;6.00;3.33;;;;;;;2.94;98.63;96385.28;5103057;28;20051;-66
2021/10/25 01:14:27;;;;;;;7.03;2.72;;;;;;;2.84;99.55;96373.25;5083574;28;20142;-66
2021/10/25 01:16:54;;;;;;;5.85;2.95;;;;;;;2.82;100.00;96382.88;5104307;28;20047;-67
2021/10/25 01:19:20;;;;;;;7.32;3.08;;;;;;;2.79;100.00;96387.50;5090999;27;20043;-67
2021/10/25 01:21:48;;;;;;;7.53;3.55;;;;;;;2.79;100.00;96388.34;5086451;28;20421;-67
2021/10/25 01:24:15;;;;;;;7.15;3.30;;;;;;;2.79;100.00;96393.47;5085296;28;20035;-67
2021/10/25 01:26:42;;;;;;;6.50;2.83;;;;;;;2.63;100.00;96377.84;5087697;28;20051;-66
2021/10/25 01:29:08;;;;;;;7.15;3.35;;;;;;;2.67;100.00;96389.47;5106427;27;20043;-67
2021/10/25 01:31:36;;;;;;;6.22;3.60;;;;;;;2.57;100.00;96378.41;5086956;28;20044;-67
2021/10/25 01:34:03;;;;;;;7.45;3.92;;;;;;;2.57;100.00;96393.84;5091207;27;20070;-68
2021/10/25 01:36:34;;;;;;;5.43;3.00;;;;;;;2.60;100.00;96380.72;5084883;28;21722;-67
2021/10/25 01:39:01;;;;;;;5.22;3.42;;;;;;;2.73;100.00;96398.38;5083805;28;20061;-66
2021/10/25 01:41:28;;;;;;;5.72;3.88;;;;;;;2.71;100.00;96387.44;5105487;27;20072;-67
2021/10/25 01:43:56;;;;;;;5.78;3.00;;;;;;;2.76;100.00;96391.19;5086479;28;20051;-67
2021/10/25 01:46:23;;;;;;;4.47;2.80;;;;;;;2.74;100.00;96390.53;5102899;28;20044;-67
2021/10/25 01:48:51;;;;;;;13.25;4.03;;;;;;;2.76;100.00;96393.75;5084522;28;20495;-67
2021/10/25 01:51:18;;;;;;;10.85;4.32;;;;;;;2.73;100.00;96378.59;5085097;28;20043;-67
2021/10/25 01:53:46;;;;;;;10.85;3.13;;;;;;;2.70;100.00;96384.03;5086157;28;20505;-66
2021/10/25 01:56:13;;;;;;;4.97;2.90;;;;;;;2.61;100.00;96362.56;5087486;28;20464;-67
2021/10/25 01:58:43;;;;;;;6.13;3.50;;;;;;;2.77;100.00;96390.22;5089672;28;20083;-67
2021/10/25 02:01:17;;;;;;;5.35;3.30;;;;;;;2.75;100.00;96397.28;5088370;28;21051;-67
2021/10/25 02:03:45;;;;;;;6.47;3.83;;;;;;;2.72;100.00;96392.44;5087109;28;20089;-67
2021/10/25 02:06:21;;;;;;;16.20;4.30;;;;;;;2.67;100.00;96384.31;5086822;28;20134;-67
2021/10/25 02:08:48;;;;;;;5.85;3.53;;;;;;;2.71;100.00;96380.50;5089232;28;20043;-67
2021/10/25 02:11:17;;;;;;;5.90;3.67;;;;;;;2.67;100.00;96385.13;5073873;28;20043;-66
2021/10/25 02:13:53;;;;;;;6.10;3.00;;;;;;;2.71;100.00;96388.22;5087536;28;20127;-67
2021/10/25 02:16:20;;;;;;;11.07;5.13;;;;;;;2.68;100.00;96380.78;5084449;28;20062;-66
2021/10/25 02:18:47;;;;;;;6.45;3.83;;;;;;;2.71;100.00;96380.50;5084343;28;20516;-67
2021/10/25 02:21:14;;;;;;;5.20;3.55;;;;;;;2.68;100.00;96375.63;5103968;28;20036;-67
2021/10/25 02:23:41;;;;;;;7.47;4.18;;;;;;;2.63;100.00;96375.28;5084364;28;20498;-67
2021/10/25 02:26:08;;;;;;;11.45;4.95;;;;;;;2.43;100.00;96341.09;5086161;28;20046;-66
2021/10/25 02:28:35;;;;;;;6.75;4.10;;;;;;;2.63;100.00;96372.72;5089674;28;20048;-66
2021/10/25 02:31:02;;;;;;;7.00;4.20;;;;;;;2.62;100.00;96365.94;5088076;28;20053;-67
2021/10/25 02:33:34;;;;;;;7.13;3.90;;;;;;;2.57;100.00;96357.84;5086426;28;20050;-67
2021/10/25 02:36:03;;;;;;;11.18;5.20;;;;;;;2.68;100.00;96375.63;5089451;28;20040;-67
2021/10/25 02:38:36;;;;;;;9.75;5.13;;;;;;;2.60;100.00;96367.84;5086737;28;20101;-66
2021/10/25 02:41:05;;;;;;;8.50;4.00;;;;;;;2.62;100.00;96381.38;5107661;28;20036;-66
2021/10/25 02:43:33;;;;;;;7.18;4.18;;;;;;;2.59;100.00;96376.50;5103390;28;20104;-67
2021/10/25 02:46:03;;;;;;;8.93;4.07;;;;;;;2.64;100.00;96379.47;5087169;28;20074;-66
2021/10/25 02:48:31;;;;;;;8.85;4.95;;;;;;;2.57;100.00;96365.56;5108705;27;20055;-66
2021/10/25 02:51:03;;;;;;;16.33;7.43;;;;;;;2.59;100.00;96376.50;5074932;28;20039;-66
2021/10/25 02:53:30;;;;;;;12.32;6.65;;;;;;;2.52;100.00;96375.47;5087157;28;20051;-66
2021/10/25 02:55:57;;;;;;;13.38;6.38;;;;;;;2.42;100.00;96376.31;5089558;28;20049;-66
2021/10/25 02:58:25;;;;;;;11.15;5.40;;;;;;;2.28;100.00;96375.00;5079839;27;20039;-66
2021/10/25 03:00:54;;;;;;;8.15;4.70;;;;;;;2.35;100.00;96370.13;5106759;27;20054;-67
2021/10/25 03:03:23;;;;;;;8.45;5.00;;;;;;;2.33;100.00;96360.94;5092045;28;20043;-67
2021/10/25 03:05:51;;;;;;;8.70;5.45;;;;;;;2.35;100.00;96364.97;5087847;27;20043;-67
2021/10/25 03:08:18;;;;;;;8.38;4.70;;;;;;;2.33;100.00;96358.38;5107597;27;20458;-66
2021/10/25 03:10:45;;;;;;;9.77;4.63;;;;;;;2.41;100.00;96369.56;5086746;28;20039;-66
2021/10/25 03:13:13;;;;;;;7.60;4.28;;;;;;;2.41;100.00;96364.41;5086483;28;20142;-66
2021/10/25 03:15:40;;;;;;;6.05;4.13;;;;;;;2.23;100.00;96343.78;5107842;27;20044;-66
2021/10/25 03:18:09;;;;;;;10.75;4.57;;;;;;;2.37;100.00;96360.50;5091767;28;20043;-67
2021/10/25 03:20:38;;;;;;;6.57;4.28;;;;;;;2.36;100.00;96356.31;5087124;28;20139;-66
2021/10/25 03:23:07;;;;;;;7.70;3.92;;;;;;;2.39;100.00;96358.59;5089220;27;20050;-66
2021/10/25 03:25:34;;;;;;;9.75;4.88;;;;;;;2.43;100.00;96354.78;5087242;28;20055;-67
2021/10/25 03:28:02;;;;;;;9.25;4.07;;;;;;;2.36;100.00;96350.34;5104791;27;20039;-66
2021/10/25 03:30:32;;;;;;;9.00;5.20;;;;;;;2.43;100.00;96362.50;5090394;28;20058;-66
2021/10/25 03:33:04;;;;;;;6.47;4.10;;;;;;;2.44;100.00;96353.84;5088615;28;20043;-66
2021/10/25 03:35:39;;;;;;;9.73;5.03;;;;;;;2.42;100.00;96355.75;5105331;27;20061;-66
2021/10/25 03:38:11;;;;;;;7.07;4.13;;;;;;;2.45;100.00;96360.59;5107800;27;20821;-66
2021/10/25 03:40:42;;;;;;;6.43;4.28;;;;;;;2.40;100.00;96362.78;5090044;27;20042;-66
2021/10/25 03:43:09;;;;;;;7.38;4.72;;;;;;;2.38;100.00;96362.13;5103188;28;20040;-66
2021/10/25 03:45:39;;;;;;;7.32;4.65;;;;;;;2.42;100.00;96360.88;5090177;28;20051;-66
2021/10/25 03:48:15;;;;;;;7.32;4.93;;;;;;;2.34;100.00;96363.38;5086120;27;20044;-66
2021/10/25 03:50:43;;;;;;;9.05;5.53;;;;;;;2.31;100.00;96363.66;5106779;27;20039;-66
2021/10/25 04:01:09;;;;;;;10.23;5.15;;;;;;;2.20;100.00;96362.06;5089105;28;20032;-66
2021/10/25 04:28:47;;;;;;;6.85;4.43;;;;;;;2.24;100.00;96367.72;5091107;27;20053;-66
2021/10/25 04:31:21;;;;;;;9.23;5.57;;;;;;;2.19;100.00;96349.34;5073576;28;20546;-66
2021/10/25 04:33:57;;;;;;;9.07;4.43;;;;;;;2.29;100.00;96339.84;5089282;28;20066;-66
2021/10/25 04:36:43;;;;;;;7.40;4.30;;;;;;;2.35;100.00;96353.88;5104087;27;20452;-66
2021/10/25 04:39:42;;;;;;;8.57;3.92;;;;;;;2.26;100.00;96358.13;5097016;28;20130;-66
2021/10/25 04:42:16;;;;;;;9.88;4.03;;;;;;;2.30;100.00;96356.88;5088490;27;20049;-66
2021/10/25 04:44:44;;;;;;;8.57;3.95;;;;;;;2.23;100.00;96361.78;5086175;28;20050;-66
2021/10/25 04:47:11;;;;;;;13.90;4.35;;;;;;;2.13;100.00;96348.16;5085930;28;20075;-66
2021/10/25 04:49:38;;;;;;;7.72;4.75;;;;;;;2.22;100.00;96364.50;5088931;27;20052;-67
2021/10/25 04:52:24;;;;;;;18.95;8.25;;;;;;;2.25;100.00;96369.34;5102027;28;20193;-66
2021/10/25 04:54:51;;;;;;;14.57;6.75;;;;;;;2.25;100.00;96374.47;5090160;28;20044;-66
2021/10/25 04:57:17;;;;;;;13.38;7.40;;;;;;;2.19;100.00;96369.91;5104432;27;20073;-66
2021/10/25 04:59:45;;;;;;;595.83;377.75;;;;;;;2.24;100.00;96368.53;5089631;27;20054;-66
2021/10/25 05:02:12;;;;;;;68.70;50.40;;;;;;;2.18;100.00;96363.97;5088312;28;20063;-66
2021/10/25 05:04:41;;;;;;;24.20;13.20;;;;;;;2.18;100.00;96368.28;5088187;28;20057;-66
2021/10/25 05:07:08;;;;;;;14.27;8.73;;;;;;;2.03;100.00;96361.00;5085440;28;20143;-66
2021/10/25 05:09:36;;;;;;;18.88;9.55;;;;;;;1.92;100.00;96371.47;5101796;27;20096;-67
2021/10/25 05:12:04;;;;;;;21.90;12.52;;;;;;;2.01;100.00;96373.19;5090222;28;20043;-66
2021/10/25 05:14:31;;;;;;;17.02;10.05;;;;;;;2.01;100.00;96383.47;5088722;28;20074;-67
2021/10/25 05:17:00;;;;;;;13.93;8.75;;;;;;;2.00;100.00;96381.88;5089450;27;20059;-67
2021/10/25 05:19:27;;;;;;;14.25;10.07;;;;;;;2.00;100.00;96388.75;5087878;28;20119;-68
2021/10/25 05:22:08;;;;;;;14.73;8.52;;;;;;;2.05;100.00;96395.13;5086336;28;20096;-65
2021/10/25 05:24:37;;;;;;;20.20;12.77;;;;;;;2.13;100.00;96401.31;5086422;28;20420;-66
2021/10/25 05:27:06;;;;;;;18.63;11.45;;;;;;;2.15;100.00;96394.28;5086214;27;20139;-66
2021/10/25 05:29:34;;;;;;;20.00;13.20;;;;;;;2.20;100.00;96394.69;5087053;28;20044;-67
2021/10/25 05:32:01;;;;;;;16.33;10.80;;;;;;;2.33;100.00;96400.31;5085306;28;20035;-66
2021/10/25 05:34:29;;;;;;;10.95;7.28;;;;;;;2.33;100.00;96404.66;5087911;28;20645;-66
2021/10/25 05:36:56;;;;;;;8.85;6.15;;;;;;;2.47;100.00;96406.75;5088550;28;20039;-66
2021/10/25 05:39:22;;;;;;;9.55;6.63;;;;;;;2.56;100.00;96410.25;5088020;27;20065;-66
2021/10/25 05:41:50;;;;;;;9.70;6.40;;;;;;;2.52;100.00;96385.75;5086840;28;20035;-67
2021/10/25 05:44:19;;;;;;;11.90;6.65;;;;;;;2.69;100.00;96403.00;5086837;28;20100;-67
2021/10/25 05:46:46;;;;;;;13.35;6.18;;;;;;;2.77;100.00;96408.22;5085141;28;20046;-67
2021/10/25 05:49:14;;;;;;;11.55;6.75;;;;;;;2.94;100.00;96416.16;5088116;28;20563;-66
2021/10/25 05:51:43;;;;;;;15.50;9.82;;;;;;;3.05;100.00;96423.69;5085075;28;20104;-66
2021/10/25 05:54:10;;;;;;;17.30;10.75;;;;;;;3.13;100.00;96421.16;5120348;27;20039;-67
2021/10/25 05:56:37;;;;;;;16.30;9.90;;;;;;;3.20;100.00;96431.72;5102458;28;20508;-67
2021/10/25 05:59:05;;;;;;;11.57;7.93;;;;;;;3.28;100.00;96423.25;5086313;28;20047;-67
2021/10/25 06:01:43;;;;;;;11.43;6.72;;;;;;;3.41;100.00;96428.88;5082834;28;20573;-67
2021/10/25 06:04:32;;;;;;;15.05;6.70;;;;;;;3.51;100.00;96429.59;5085250;28;20040;-67
2021/10/25 06:07:15;;;;;;;9.18;5.80;;;;;;;3.70;100.00;96443.28;5087653;28;20504;-67
2021/10/25 06:09:44;;;;;;;10.75;5.78;;;;;;;3.84;100.00;96450.50;5084592;28;20048;-68
2021/10/25 06:12:17;;;;;;;8.60;5.13;;;;;;;3.94;100.00;96450.41;5083096;28;20466;-67
2021/10/25 06:15:22;;;;;;;10.80;5.70;;;;;;;4.06;100.00;96443.25;5088625;28;20055;-67
2021/10/25 06:17:52;;;;;;;8.18;5.50;;;;;;;4.19;100.00;96451.38;5083904;28;20663;-67
2021/10/25 06:20:24;;;;;;;9.77;4.95;;;;;;;4.23;100.00;96439.81;5086713;27;20044;-67
2021/10/25 06:22:52;;;;;;;8.07;5.38;;;;;;;4.43;100.00;96449.91;5088736;28;20043;-67
2021/10/25 06:25:22;;;;;;;11.00;6.45;;;;;;;4.57;100.00;96447.59;5073004;28;20047;-67
2021/10/25 06:28:09;;;;;;;12.75;7.30;;;;;;;4.82;100.00;96462.41;5092343;27;20139;-67
2021/10/25 06:30:41;;;;;;;10.85;6.43;;;;;;;4.97;100.00;96455.69;5105522;27;20058;-67
2021/10/25 06:33:13;;;;;;;21.60;12.30;;;;;;;5.13;100.00;96463.50;5086776;27;20054;-67
2021/10/25 06:36:05;;;;;;;12.85;7.80;;;;;;;5.28;100.00;96465.47;5107582;27;20043;-66
2021/10/25 06:38:57;;;;;;;12.73;7.78;;;;;;;5.24;100.00;96443.50;5086890;28;20416;-67
2021/10/25 06:41:25;;;;;;;12.73;7.82;;;;;;;5.51;100.00;96456.16;5123029;27;20043;-66
2021/10/25 06:43:56;;;;;;;14.57;6.88;;;;;;;5.69;100.00;96453.44;5086317;28;20158;-67
2021/10/25 06:46:25;;;;;;;12.07;6.38;;;;;;;5.87;100.00;96461.03;5089906;27;20053;-66
2021/10/25 06:48:55;;;;;;;13.35;6.97;;;;;;;5.99;100.00;96458.16;5087071;28;20039;-66
2021/10/25 06:51:22;;;;;;;18.23;10.43;;;;;;;6.11;100.00;96457.66;5090430;28;20457;-66
2021/10/25 06:53:49;;;;;;;11.52;6.55;;;;;;;6.38;99.60;96462.66;5104974;27;20045;-66
2021/10/25 06:56:16;;;;;;;14.35;7.35;;;;;;;6.45;98.26;96458.44;5093637;27;20104;-66
2021/10/25 06:58:43;;;;;;;19.48;6.95;;;;;;;6.68;98.77;96453.34;5085210;28;20502;-66
2021/10/25 07:01:11;;;;;;;9.77;6.18;;;;;;;6.81;97.27;96458.03;5103460;27;20040;-66
2021/10/25 07:03:40;;;;;;;9.98;6.28;;;;;;;6.86;94.33;96461.75;5084768;27;20040;-66
2021/10/25 07:06:14;;;;;;;11.43;7.20;;;;;;;6.94;93.63;96458.31;5085423;28;20054;-66
2021/10/25 07:08:41;;;;;;;11.32;6.63;;;;;;;7.02;93.70;96458.28;5104097;27;20044;-65
2021/10/25 07:11:10;;;;;;;12.38;6.60;;;;;;;7.07;91.88;96453.38;5090656;27;20747;-65
2021/10/25 07:13:44;;;;;;;14.10;7.82;;;;;;;7.25;93.67;96454.94;5084134;28;20135;-67
2021/10/25 07:16:39;;;;;;;11.68;5.50;;;;;;;7.41;90.48;96467.78;5090440;28;20048;-66
2021/10/25 08:03:54;;;;;;;7.50;3.53;;;;;;;9.07;75.42;96439.44;5085366;28;20117;-67
2021/10/25 08:06:35;;;;;;;7.97;4.88;;;;;;;9.22;72.61;96448.03;5082841;27;20101;-67
2021/10/25 08:09:53;;;;;;;;;;;;;;;9.05;72.16;96451.81;5082295;28;20159;-68
2021/10/25 08:11:57;;;;;;;5.43;3.53;;;;;;;9.04;72.26;96440.63;5066896;28;19923;-67
2021/10/25 08:14:32;;;;;;;10.32;4.95;;;;;;;9.18;70.32;96454.56;5082522;28;20040;-67
2021/10/25 08:17:00;;;;;;;6.40;3.47;;;;;;;9.22;71.72;96448.03;5083513;28;20047;-67
2021/10/25 08:19:30;;;;;;;7.28;4.13;;;;;;;9.36;71.22;96449.78;5085797;27;20043;-67
2021/10/25 08:22:05;;;;;;;11.60;6.75;;;;;;;9.38;69.90;96447.81;5101494;27;20444;-68
2021/10/25 08:24:37;;;;;;;6.70;3.67;;;;;;;9.52;70.55;96437.53;5088658;28;20048;-67
2021/10/25 08:27:15;;;;;;;6.68;3.65;;;;;;;9.79;68.42;96443.00;5088560;27;20100;-67
2021/10/25 08:29:46;;;;;;;5.60;3.40;;;;;;;9.84;67.31;96435.44;5089099;28;20032;-68
2021/10/25 08:40:58;;;;;;;6.20;3.90;;;;;;;10.28;68.23;96437.81;5043951;28;20045;-68
2021/10/25 08:43:26;;;;;;;6.10;3.50;;;;;;;10.37;61.37;96425.50;5073263;28;20547;-68
2021/10/25 08:45:56;;;;;;;8.50;3.38;;;;;;;10.07;60.92;96425.63;5087145;28;20126;-68
2021/10/25 08:48:24;;;;;;;6.32;3.67;;;;;;;9.99;62.73;96433.56;5085651;28;20053;-68
2021/10/25 08:50:51;;;;;;;9.15;3.67;;;;;;;10.32;64.59;96427.84;5085805;28;20044;-68
2021/10/25 08:53:18;;;;;;;10.88;5.05;;;;;;;10.58;64.94;96431.63;5084296;28;21018;-68
2021/10/25 08:55:51;;;;;;;8.48;4.55;;;;;;;10.80;63.58;96425.31;5116100;27;20039;-68
2021/10/25 08:58:21;;;;;;;13.65;4.80;;;;;;;10.79;61.83;96413.31;5086410;27;20427;-68
2021/10/25 09:00:51;;;;;;;7.90;4.03;;;;;;;10.89;61.63;96429.41;5084186;27;20460;-68
2021/10/25 09:03:30;;;;;;;8.10;4.00;;;;;;;10.85;60.73;96416.94;5087821;28;20134;-68
2021/10/25 09:06:14;;;;;;;4.97;3.10;;;;;;;10.99;60.37;96423.81;5087211;28;20052;-68
2021/10/25 09:08:42;;;;;;;5.55;2.45;;;;;;;11.17;58.09;96431.09;5083217;27;20421;-68
2021/10/25 09:11:10;;;;;;;2.67;2.03;;;;;;;10.99;55.96;96433.44;5087013;27;20091;-68
2021/10/25 09:13:54;;;;;;;6.15;2.20;;;;;;;10.86;57.98;96419.34;5084845;28;20071;-68
2021/10/25 09:16:21;;;;;;;4.55;3.63;;;;;;;10.92;57.21;96422.19;5085292;28;20130;-69
2021/10/25 09:18:48;;;;;;;6.10;2.83;;;;;;;11.19;58.33;96418.69;5085730;28;20058;-68
2021/10/25 09:21:19;;;;;;;7.00;3.35;;;;;;;11.62;58.20;96413.16;5084865;28;20047;-68
2021/10/25 09:23:52;;;;;;;3.92;2.42;;;;;;;11.77;53.43;96393.91;5099198;27;20789;-68
2021/10/25 09:26:22;;;;;;;3.80;2.70;;;;;;;11.82;54.23;96417.63;5101433;28;20425;-68
2021/10/25 09:28:53;;;;;;;4.68;2.80;;;;;;;12.07;54.84;96419.69;5101150;27;20075;-68
2021/10/25 09:31:35;;;;;;;3.53;2.50;;;;;;;12.33;53.94;96421.47;5084467;28;20044;-68
2021/10/25 09:34:11;;;;;;;2.63;2.10;;;;;;;12.48;53.41;96413.38;5083860;28;20134;-68
2021/10/25 09:37:18;;;;;;;4.63;2.05;;;;;;;12.29;50.55;96401.97;5019176;28;20049;-68
2021/10/25 09:45:41;;;;;;;4.35;2.67;;;;;;;12.31;52.11;96400.75;5082696;28;20047;-68
2021/10/25 09:51:16;;;;;;;4.28;3.15;;;;;;;12.69;48.95;96392.22;5087480;28;20060;-68
2021/10/25 09:54:06;;;;;;;3.28;2.60;;;;;;;13.24;48.73;96388.41;5083399;28;20120;-68
2021/10/25 09:56:35;;;;;;;5.50;2.03;;;;;;;13.27;45.58;96387.97;5080440;28;20039;-68
2021/10/25 09:59:47;;;;;;;5.40;2.53;;;;;;;13.29;46.99;96368.47;5047130;27;20140;-69
2021/10/25 10:02:21;;;;;;;5.22;2.08;;;;;;;13.80;46.88;96379.84;5084338;27;20072;-68
2021/10/25 10:04:57;;;;;;;5.63;3.10;;;;;;;14.06;44.76;96364.91;5081386;28;20074;-68
2021/10/25 10:07:35;;;;;;;4.20;1.85;;;;;;;14.08;45.47;96373.34;5080472;28;20075;-68
2021/10/25 10:10:25;;;;;;;6.63;2.40;;;;;;;13.94;46.04;96367.44;5099029;27;20591;-68
2021/10/25 10:13:03;;;;;;;5.22;2.88;;;;;;;14.06;47.40;96364.91;5087554;28;20074;-68
2021/10/25 10:15:35;;;;;;;7.60;2.30;;;;;;;14.06;45.12;96333.47;5084296;28;20043;-69
2021/10/25 10:18:06;;;;;;;3.55;2.08;;;;;;;14.46;42.03;96354.06;5085870;28;20055;-68
2021/10/25 10:21:00;;;;;;;5.22;2.20;;;;;;;14.48;43.78;96341.56;5104962;27;20085;-67
2021/10/25 10:23:27;;;;;;;2.80;2.13;;;;;;;14.31;47.26;96336.88;5091677;27;20135;-68
2021/10/25 10:25:57;;;;;;;4.32;2.65;;;;;;;14.17;44.03;96338.03;5091819;27;20099;-68
2021/10/25 10:28:44;;;;;;;2.75;2.00;;;;;;;14.35;44.85;96332.00;5091574;28;20578;-67
2021/10/25 10:31:15;;;;;;;3.67;2.03;;;;;;;15.22;43.73;96331.00;5091891;27;20116;-68
2021/10/25 10:33:57;;;;;;;5.78;2.65;;;;;;;15.40;43.93;96327.50;5087093;27;20067;-68
2021/10/25 10:36:31;;;;;;;3.72;2.38;;;;;;;14.80;42.08;96317.78;5087101;28;20058;-68
2021/10/25 10:39:09;;;;;;;;;;;;;;;15.07;42.88;96313.81;5086874;27;20716;-68
2021/10/25 10:42:27;;;;;;;4.80;2.10;;;;;;;14.90;41.72;96307.59;5088812;28;19973;-67
2021/10/25 10:45:10;;;;;;;3.88;2.03;;;;;;;15.18;40.99;96304.41;5085600;28;20184;-67
2021/10/25 10:47:45;;;;;;;4.07;2.50;;;;;;;15.17;40.72;96292.28;5089033;28;20051;-68
2021/10/25 10:50:22;;;;;;;3.85;2.58;;;;;;;14.99;42.11;96295.75;5102273;28;20534;-68
2021/10/25 10:53:15;;;;;;;2.30;1.73;;;;;;;15.39;40.29;96305.69;5105201;27;20042;-68
2021/10/25 10:55:44;;;;;;;3.85;2.30;;;;;;;15.83;40.50;96289.69;5100994;28;20047;-68
2021/10/25 10:58:26;;;;;;;6.97;2.40;;;;;;;16.20;39.25;96295.50;5106269;27;20425;-68
2021/10/25 11:01:04;;;;;;;2.58;1.73;;;;;;;16.32;39.49;96292.06;5103338;28;20493;-69
2021/10/25 11:03:33;;;;;;;5.97;3.10;;;;;;;15.82;39.91;96267.84;5104203;27;21869;-68
2021/10/25 11:06:11;;;;;;;3.42;2.33;;;;;;;15.83;38.76;96272.09;5102702;28;20046;-67
2021/10/25 11:08:40;;;;;;;4.47;1.90;;;;;;;15.98;38.73;96270.84;5104077;27;20055;-67
2021/10/25 11:11:12;;;;;;;2.58;1.70;;;;;;;15.64;39.83;96276.63;5102296;27;20035;-68
2021/10/25 11:13:50;;;;;;;4.38;2.20;;;;;;;16.05;38.57;96263.63;5085104;27;20409;-68
2021/10/25 11:16:27;;;;;;;4.43;2.42;;;;;;;16.39;39.64;96261.97;5085680;28;20043;-68
2021/10/25 11:18:57;;;;;;;6.97;2.05;;;;;;;16.92;36.63;96264.56;5103601;27;20035;-68
2021/10/25 11:21:31;;;;;;;2.22;1.67;;;;;;;16.61;37.98;96256.88;5100781;28;20819;-68
2021/10/25 11:24:02;;;;;;;10.60;3.23;;;;;;;16.57;38.84;96263.66;5103917;28;20047;-68
2021/10/25 11:26:43;;;;;;;3.38;1.98;;;;;;;16.71;36.77;96264.19;5085949;28;20464;-68
2021/10/25 11:29:23;;;;;;;4.15;2.65;;;;;;;16.48;39.53;96244.00;5101505;27;20118;-68
2021/10/25 11:31:54;;;;;;;7.10;3.22;;;;;;;16.74;38.62;96252.38;5103428;27;20590;-68
2021/10/25 11:34:36;;;;;;;3.58;1.60;;;;;;;16.86;37.19;96247.91;5083665;28;20048;-68
2021/10/25 11:37:09;;;;;;;2.78;1.55;;;;;;;16.37;36.25;96242.22;5102836;27;20729;-68
2021/10/25 11:40:05;;;;;;;3.03;1.95;;;;;;;16.58;37.09;96236.31;5102195;27;20047;-68
2021/10/25 11:42:34;;;;;;;3.28;1.60;;;;;;;16.73;37.08;96229.75;5083144;28;20089;-68
2021/10/25 11:45:08;;;;;;;4.60;2.20;;;;;;;16.87;35.72;96225.84;5082859;28;20043;-68
2021/10/25 11:47:38;;;;;;;3.85;1.70;;;;;;;16.95;35.88;96227.28;5102954;27;20512;-68
2021/10/25 11:50:16;;;;;;;2.28;1.98;;;;;;;16.58;35.38;96228.44;5101991;28;20043;-68
2021/10/25 11:52:58;;;;;;;2.53;1.50;;;;;;;16.96;34.42;96213.88;5102797;27;20427;-68
2021/10/25 11:55:33;;;;;;;7.82;2.78;;;;;;;17.19;33.92;96212.13;5103628;28;20043;-69
2021/10/25 11:58:13;;;;;;;4.72;1.77;;;;;;;16.83;36.40;96203.63;5083109;28;20047;-68
2021/10/25 12:00:47;;;;;;;4.03;1.45;;;;;;;16.50;34.30;96207.75;5102604;27;20047;-68
2021/10/25 12:03:44;;;;;;;4.50;2.35;;;;;;;16.84;35.38;96210.50;5083372;27;20160;-68
2021/10/25 12:06:19;;;;;;;3.22;1.83;;;;;;;16.19;35.36;96194.03;5082575;28;20044;-68
2021/10/25 12:09:00;;;;;;;3.05;1.75;;;;;;;16.29;35.27;96187.38;5099106;27;20039;-69
2021/10/25 12:14:29;;;;;;;5.15;1.45;;;;;;;16.48;34.01;96207.19;5101574;27;20047;-68
2021/10/25 12:16:56;;;;;;;4.55;1.88;;;;;;;16.98;34.45;96190.75;5100120;27;20139;-68
2021/10/25 12:19:27;;;;;;;2.50;1.48;;;;;;;16.88;35.57;96206.34;5097958;28;20121;-68
2021/10/25 12:21:54;;;;;;;2.20;1.52;;;;;;;17.51;35.02;96190.50;5099133;28;20512;-68
2021/10/25 12:24:22;;;;;;;2.83;1.75;;;;;;;17.49;33.62;96187.31;5082371;28;20059;-69
2021/10/25 12:26:59;;;;;;;4.03;1.58;;;;;;;17.27;33.95;96198.59;5101232;28;20040;-68
2021/10/25 12:29:26;;;;;;;3.63;1.70;;;;;;;17.27;32.96;96182.78;5103013;27;20853;-68
2021/10/25 12:31:53;;;;;;;6.90;1.73;;;;;;;17.07;32.82;96187.72;5099698;27;22016;-68
2021/10/25 12:34:20;;;;;;;3.50;1.52;;;;;;;17.41;33.42;96187.72;5099099;28;20333;-68
2021/10/25 12:36:47;;;;;;;2.67;1.60;;;;;;;17.35;34.80;96184.22;5099032;27;20044;-69
2021/10/25 12:39:17;;;;;;;3.17;1.50;;;;;;;17.35;34.07;96179.72;5100699;27;20047;-69
2021/10/25 12:41:56;;;;;;;2.22;1.40;;;;;;;16.88;33.89;96174.78;5101026;27;20050;-69
2021/10/25 12:44:31;;;;;;;3.75;1.73;;;;;;;16.70;34.13;96175.75;5097836;28;20028;-68
2021/10/25 12:47:10;;;;;;;2.30;1.30;;;;;;;16.80;33.45;96162.00;5101280;27;20050;-68
2021/10/25 12:49:38;;;;;;;2.33;1.45;;;;;;;16.73;34.98;96169.25;5101064;27;20373;-69
2021/10/25 12:52:11;;;;;;;3.00;1.55;;;;;;;17.33;33.67;96166.00;5100121;27;20051;-68
2021/10/25 12:54:39;;;;;;;8.10;2.08;;;;;;;17.59;33.20;96163.75;5103799;27;20100;-68
2021/10/25 12:57:23;;;;;;;5.45;2.40;;;;;;;17.09;32.58;96161.97;5102221;27;20044;-66
2021/10/25 13:00:10;;;;;;;3.42;1.48;;;;;;;17.34;33.74;96156.28;5102350;27;20040;-67
2021/10/25 13:02:39;;;;;;;4.60;2.08;;;;;;;17.07;33.59;96161.38;5098555;27;20059;-67
2021/10/25 13:05:13;;;;;;;5.00;1.98;;;;;;;16.56;34.93;96162.09;5100218;27;20123;-67
2021/10/25 13:07:49;;;;;;;4.03;1.70;;;;;;;16.82;33.56;96165.97;5099735;27;20417;-68
2021/10/25 13:10:26;;;;;;;3.97;2.10;;;;;;;16.76;33.85;96163.50;5103541;27;20060;-68
2021/10/25 13:12:55;;;;;;;3.28;1.98;;;;;;;17.30;33.63;96166.50;5103476;28;20412;-68
2021/10/25 13:15:23;;;;;;;2.85;1.45;;;;;;;17.21;33.47;96165.31;5103410;27;20790;-68
2021/10/25 13:17:52;;;;;;;3.13;2.20;;;;;;;16.36;33.71;96161.75;5096024;28;20561;-67
2021/10/25 13:20:21;;;;;;;6.30;2.10;;;;;;;16.85;34.91;96167.34;5099983;27;20036;-68
2021/10/25 13:22:50;;;;;;;5.97;1.80;;;;;;;16.80;33.29;96164.63;5083697;28;20038;-68
2021/10/25 13:25:19;;;;;;;3.00;1.65;;;;;;;17.39;33.65;96153.72;5100871;28;20061;-68
2021/10/25 13:27:49;;;;;;;3.17;1.45;;;;;;;17.32;35.39;96143.38;5096898;28;20039;-68
2021/10/25 13:30:18;;;;;;;4.13;2.35;;;;;;;16.67;34.34;96143.88;5102052;28;20040;-68
2021/10/25 13:32:46;;;;;;;2.80;2.17;;;;;;;16.58;34.40;96144.28;5100950;28;20409;-68
2021/10/25 13:35:15;;;;;;;2.17;1.30;;;;;;;16.55;35.71;96139.47;5101452;28;20482;-68